createdAt,value
2022-11-11T00:00:31.322Z,22.77
2022-11-11T04:00:47.037Z,5.53
2022-11-11T04:03:50.848Z,6.30
2022-11-11T04:06:55.073Z,4.90
2022-11-11T04:09:59.042Z,6.50
2022-11-11T04:13:03.182Z,5.93
2022-11-11T04:16:07.982Z,5.10
2022-11-11T04:19:11.724Z,7.03
2022-11-11T04:21:57.560Z,6.77
2022-11-11T04:25:01.426Z,6.23
2022-11-11T04:28:06.940Z,5.97
2022-11-11T04:30:53.720Z,6.13
2022-11-11T04:33:39.318Z,5.60
2022-11-11T04:36:24.935Z,6.03
2022-11-11T04:39:29.192Z,5.40
2022-11-11T04:42:14.723Z,6.43
2022-11-11T04:45:19.424Z,5.07
2022-11-11T04:48:07.846Z,5.33
2022-11-11T04:50:53.245Z,6.17
2022-11-11T04:53:38.903Z,6.27
2022-11-11T04:56:42.719Z,7.03
2022-11-11T04:59:28.308Z,5.17
2022-11-11T05:02:32.195Z,7.47
2022-11-11T05:05:19.189Z,4.63
2022-11-11T05:08:23.546Z,5.80
2022-11-11T05:11:09.264Z,4.83
2022-11-11T05:14:15.875Z,6.07
2022-11-11T05:17:19.767Z,5.23
2022-11-11T05:20:24.235Z,5.47
2022-11-11T05:23:11.303Z,6.17
2022-11-11T05:25:57.461Z,7.83
2022-11-11T05:28:42.988Z,5.10
2022-11-11T05:31:29.552Z,7.43
2022-11-11T05:34:14.939Z,5.20
2022-11-11T05:37:00.393Z,8.47
2022-11-11T05:39:47.360Z,5.90
2022-11-11T05:42:33.133Z,6.60
2022-11-11T05:45:18.393Z,5.90
2022-11-11T05:48:04.743Z,5.30
2022-11-11T05:50:50.284Z,5.93
2022-11-11T05:53:35.922Z,7.20
2022-11-11T05:56:22.806Z,5.70
2022-11-11T05:59:08.598Z,7.93
2022-11-11T06:01:54.954Z,7.13
2022-11-11T06:04:40.436Z,7.03
2022-11-11T06:07:25.819Z,6.33
2022-11-11T06:10:29.827Z,7.30
2022-11-11T06:13:16.738Z,13.37
2022-11-11T06:16:03.442Z,8.27
2022-11-11T06:18:49.847Z,7.30
2022-11-11T06:21:55.367Z,6.67
2022-11-11T06:24:41.037Z,8.50
2022-11-11T06:27:26.655Z,6.43
2022-11-11T06:30:44.211Z,7.87
2022-11-11T06:33:21.608Z,5.30
2022-11-11T06:36:08.236Z,6.60
2022-11-11T06:38:54.042Z,7.30
2022-11-11T06:41:39.502Z,8.53
2022-11-11T06:44:25.104Z,6.57
2022-11-11T06:47:12.097Z,5.60
2022-11-11T06:49:57.484Z,7.90
2022-11-11T06:52:43.151Z,6.83
2022-11-11T06:55:28.700Z,7.40
2022-11-11T06:58:18.396Z,7.43
2022-11-11T07:01:05.017Z,8.30
2022-11-11T07:03:52.345Z,6.00
2022-11-11T07:06:37.951Z,5.63
2022-11-11T07:09:25.745Z,5.93
2022-11-11T07:12:11.262Z,6.93
2022-11-11T07:14:56.738Z,7.27
2022-11-11T07:17:42.687Z,6.23
2022-11-11T07:20:29.916Z,9.23
2022-11-11T07:23:17.426Z,9.43
2022-11-11T07:26:02.730Z,8.33
2022-11-11T07:28:50.800Z,6.87
2022-11-11T07:31:36.225Z,6.93
2022-11-11T07:34:21.907Z,7.80
2022-11-11T07:37:08.766Z,7.37
2022-11-11T07:39:54.841Z,5.83
2022-11-11T07:42:41.359Z,6.93
2022-11-11T07:45:26.751Z,6.50
2022-11-11T07:48:12.246Z,7.13
2022-11-11T07:50:58.169Z,6.57
2022-11-11T07:53:45.050Z,6.23
2022-11-11T07:56:30.699Z,7.40
2022-11-11T07:59:16.348Z,6.27
2022-11-11T08:02:01.868Z,10.57
2022-11-11T08:04:53.784Z,9.53
2022-11-11T08:07:42.564Z,7.20
2022-11-11T08:10:29.142Z,7.63
2022-11-11T08:13:33.139Z,6.63
2022-11-11T08:16:18.668Z,9.73
2022-11-11T08:19:04.250Z,6.90
2022-11-11T08:21:49.641Z,10.70
2022-11-11T08:25:05.728Z,7.93
2022-11-11T08:27:42.815Z,9.50
2022-11-11T08:30:28.179Z,10.90
2022-11-11T08:36:21.288Z,10.43
2022-11-11T08:39:07.417Z,9.40
2022-11-11T08:41:52.824Z,7.80
2022-11-11T08:44:39.892Z,8.23
2022-11-11T08:47:25.481Z,7.00
2022-11-11T08:50:11.358Z,7.23
2022-11-11T08:52:57.218Z,6.03
2022-11-11T08:55:42.795Z,6.43
2022-11-11T08:58:28.218Z,5.80
2022-11-11T09:01:15.660Z,4.80
2022-11-11T09:04:16.797Z,4.63
2022-11-11T09:07:08.042Z,4.23
2022-11-11T09:09:53.858Z,4.57
2022-11-11T09:12:39.426Z,4.53
2022-11-11T09:15:25.221Z,4.20
2022-11-11T09:18:12.299Z,3.77
2022-11-11T09:20:58.409Z,4.17
2022-11-11T09:23:43.927Z,3.57
2022-11-11T09:26:29.577Z,2.97
2022-11-11T09:29:15.353Z,4.33
2022-11-11T09:32:00.692Z,4.67
2022-11-11T09:34:47.786Z,3.13
2022-11-11T09:37:33.453Z,3.50
2022-11-11T09:40:22.180Z,4.07
2022-11-11T09:43:17.478Z,4.40
2022-11-11T09:46:14.995Z,4.67
2022-11-11T09:49:26.247Z,3.03
2022-11-11T09:52:18.993Z,4.47
2022-11-11T09:55:14.823Z,3.97
2022-11-11T09:58:04.106Z,3.83
2022-11-11T10:01:01.272Z,3.80
2022-11-11T10:03:51.976Z,4.33
2022-11-11T10:06:38.597Z,3.87
2022-11-11T10:09:33.692Z,6.20
2022-11-11T10:12:20.660Z,4.53
2022-11-11T10:15:12.489Z,3.50
2022-11-11T10:18:24.342Z,4.07
2022-11-11T10:21:15.640Z,3.63
2022-11-11T10:24:06.143Z,5.87
2022-11-11T10:26:53.144Z,3.60
2022-11-11T10:29:44.370Z,3.90
2022-11-11T10:32:33.810Z,2.87
2022-11-11T10:35:22.945Z,5.90
2022-11-11T10:38:23.290Z,4.40
2022-11-11T10:41:15.358Z,2.73
2022-11-11T10:44:02.422Z,5.47
2022-11-11T10:46:58.563Z,3.30
2022-11-11T10:49:49.693Z,4.83
2022-11-11T10:52:38.925Z,4.57
2022-11-11T10:55:29.938Z,4.67
2022-11-11T10:58:22.286Z,3.03
2022-11-11T11:01:14.184Z,5.03
2022-11-11T11:04:05.178Z,5.23
2022-11-11T11:06:52.508Z,5.23
2022-11-11T11:09:42.719Z,2.80
2022-11-11T11:12:35.127Z,3.23
2022-11-11T11:15:22.928Z,4.53
2022-11-11T11:18:13.547Z,5.70
2022-11-11T11:21:00.971Z,6.13
2022-11-11T11:23:47.452Z,11.63
2022-11-11T11:26:44.483Z,6.57
2022-11-11T11:29:33.029Z,5.03
2022-11-11T11:32:21.735Z,7.27
2022-11-11T11:35:09.047Z,6.33
2022-11-11T11:37:54.695Z,6.50
2022-11-11T11:40:48.684Z,6.57
2022-11-11T11:43:36.442Z,5.20
2022-11-11T11:46:28.627Z,6.60
2022-11-11T11:49:26.611Z,6.23
2022-11-11T11:52:21.147Z,7.70
2022-11-11T11:55:11.434Z,8.80
2022-11-11T11:58:12.635Z,7.17
2022-11-11T12:01:04.699Z,6.77
2022-11-11T12:04:27.525Z,5.53
2022-11-11T12:07:24.854Z,4.80
2022-11-11T12:10:27.680Z,5.63
2022-11-11T12:13:30.629Z,4.60
2022-11-11T12:16:26.805Z,9.40
2022-11-11T12:19:32.167Z,5.70
2022-11-11T12:22:30.669Z,7.87
2022-11-11T12:25:22.930Z,4.47
2022-11-11T12:28:21.381Z,6.50
2022-11-11T12:31:23.762Z,8.70
2022-11-11T12:34:33.767Z,11.50
2022-11-11T12:37:25.736Z,10.07
2022-11-11T12:40:24.327Z,12.63
2022-11-11T12:43:18.716Z,7.97
2022-11-11T12:46:11.980Z,6.93
2022-11-11T12:49:07.646Z,6.60
2022-11-11T12:52:04.696Z,7.50
2022-11-11T12:55:05.102Z,6.83
2022-11-11T12:58:05.334Z,7.33
2022-11-11T13:01:04.201Z,6.20
2022-11-11T13:04:00.402Z,6.67
2022-11-11T13:06:59.097Z,11.97
2022-11-11T13:10:00.056Z,6.60
2022-11-11T13:12:53.251Z,6.43
2022-11-11T13:15:38.805Z,7.13
2022-11-11T13:18:29.527Z,7.50
2022-11-11T13:21:18.029Z,5.97
2022-11-11T13:24:04.827Z,6.33
2022-11-11T13:26:55.077Z,6.33
2022-11-11T13:30:03.370Z,8.03
2022-11-11T13:32:53.190Z,7.40
2022-11-11T13:35:42.755Z,9.60
2022-11-11T13:38:31.315Z,6.80
2022-11-11T13:41:24.474Z,6.73
2022-11-11T13:44:21.627Z,7.43
2022-11-11T13:47:12.615Z,8.50
2022-11-11T13:50:00.309Z,7.77
2022-11-11T13:52:55.627Z,6.30
2022-11-11T13:55:43.837Z,6.17
2022-11-11T13:58:32.778Z,12.40
2022-11-11T14:01:19.726Z,7.57
2022-11-11T14:04:07.579Z,8.33
2022-11-11T14:06:54.786Z,5.43
2022-11-11T14:10:02.777Z,6.50
2022-11-11T14:12:50.166Z,7.33
2022-11-11T14:15:41.716Z,6.37
2022-11-11T14:18:43.628Z,6.93
2022-11-11T14:21:49.316Z,7.60
2022-11-11T14:24:38.444Z,7.40
2022-11-11T14:27:28.103Z,7.53
2022-11-11T14:30:34.153Z,6.50
2022-11-11T14:33:31.184Z,7.10
2022-11-11T14:36:24.277Z,11.13
2022-11-11T14:39:21.501Z,9.93
2022-11-11T14:42:44.693Z,6.97
2022-11-11T14:46:01.590Z,13.40
2022-11-11T14:49:02.047Z,47.10
2022-11-11T14:51:56.053Z,137.83
2022-11-11T14:54:57.107Z,80.60
2022-11-11T14:57:47.618Z,45.07
2022-11-11T15:00:43.718Z,17.87
2022-11-11T15:03:33.805Z,11.63
2022-11-11T15:06:22.211Z,8.33
2022-11-11T15:09:34.236Z,9.90
2022-11-11T15:12:30.940Z,11.80
2022-11-11T15:15:21.314Z,8.17
2022-11-11T15:18:23.142Z,8.17
2022-11-11T15:21:16.033Z,6.73
2022-11-11T15:24:18.441Z,8.33
2022-11-11T15:27:13.787Z,7.63
2022-11-11T15:30:06.152Z,8.63
2022-11-11T15:33:04.051Z,6.33
2022-11-11T15:35:56.853Z,6.07
2022-11-11T15:38:42.629Z,8.60
2022-11-11T15:41:35.221Z,7.10
2022-11-11T15:44:24.975Z,7.07
2022-11-11T15:47:14.111Z,7.23
2022-11-11T15:49:59.335Z,7.33
2022-11-11T15:52:45.358Z,5.93
2022-11-11T15:55:32.737Z,8.63
2022-11-11T15:58:27.895Z,9.23
2022-11-11T16:01:13.789Z,9.50
2022-11-11T16:03:59.722Z,11.37
2022-11-11T16:06:45.436Z,10.63
2022-11-11T16:09:31.830Z,11.50
2022-11-11T16:12:21.662Z,9.70
2022-11-11T16:15:40.639Z,14.80
2022-11-11T16:18:29.453Z,16.80
2022-11-11T16:21:19.300Z,15.40
2022-11-11T16:24:22.446Z,12.70
2022-11-11T16:27:08.607Z,12.43
2022-11-11T16:29:53.902Z,11.73
2022-11-11T16:32:41.640Z,12.30
2022-11-11T16:35:30.987Z,14.03
2022-11-11T16:38:31.214Z,10.77
2022-11-11T16:41:25.747Z,14.87
2022-11-11T16:44:34.756Z,11.77
2022-11-11T16:47:45.638Z,11.20
2022-11-11T16:50:31.799Z,12.73
2022-11-11T16:53:27.948Z,10.13
2022-11-11T16:56:21.308Z,9.90
2022-11-11T16:59:11.532Z,10.63
2022-11-11T17:01:57.170Z,13.10
2022-11-11T17:04:51.959Z,10.50
2022-11-11T17:07:39.363Z,10.73
2022-11-11T17:10:26.596Z,9.30
2022-11-11T17:13:12.290Z,10.80
2022-11-11T17:16:04.198Z,10.53
2022-11-11T17:18:49.862Z,9.57
2022-11-11T17:21:36.516Z,12.90
2022-11-11T17:24:22.204Z,8.87
2022-11-11T17:27:08.321Z,9.73
2022-11-11T17:29:53.709Z,10.57
2022-11-11T17:32:39.575Z,12.03
2022-11-11T17:35:24.952Z,11.73
2022-11-11T17:38:11.870Z,11.53
2022-11-11T17:40:57.436Z,11.40
2022-11-11T17:43:43.095Z,12.30
2022-11-11T17:46:28.602Z,12.10
2022-11-11T17:49:16.939Z,11.13
2022-11-11T17:52:05.827Z,11.53
2022-11-11T17:54:52.773Z,12.33
2022-11-11T17:57:38.448Z,12.30
2022-11-11T18:00:24.320Z,11.60
2022-11-11T18:03:09.709Z,11.33
2022-11-11T18:05:55.319Z,12.27
2022-11-11T18:08:41.251Z,8.70
2022-11-11T18:11:28.012Z,9.27
2022-11-11T18:14:16.759Z,9.90
2022-11-11T18:17:02.076Z,11.10
2022-11-11T18:19:47.690Z,10.33
2022-11-11T18:22:33.480Z,11.80
2022-11-11T18:25:18.990Z,10.90
2022-11-11T18:28:05.902Z,10.30
2022-11-11T18:30:51.177Z,11.17
2022-11-11T18:33:37.751Z,11.07
2022-11-11T18:36:23.247Z,8.10
2022-11-11T18:39:08.901Z,9.40
2022-11-11T18:41:54.467Z,7.43
2022-11-11T18:44:41.533Z,10.17
2022-11-11T18:47:27.168Z,9.30
2022-11-11T18:50:12.665Z,9.47
2022-11-11T18:52:58.293Z,8.87
2022-11-11T18:55:43.701Z,8.00
2022-11-11T18:58:29.370Z,8.40
2022-11-11T19:01:22.455Z,9.10
2022-11-11T19:04:10.127Z,8.87
2022-11-11T19:06:56.912Z,9.50
2022-11-11T19:09:42.805Z,8.10
2022-11-11T19:12:28.540Z,7.27
2022-11-11T19:15:13.976Z,8.00
2022-11-11T19:18:00.887Z,9.60
2022-11-11T19:20:46.738Z,9.17
2022-11-11T19:23:32.291Z,7.97
2022-11-11T19:26:19.625Z,9.80
2022-11-11T19:29:10.106Z,7.97
2022-11-11T19:31:55.478Z,9.60
2022-11-11T19:34:42.367Z,8.70
2022-11-11T19:37:28.075Z,9.00
2022-11-11T19:40:13.797Z,10.30
2022-11-11T19:42:59.281Z,10.23
2022-11-11T19:45:44.927Z,9.30
2022-11-11T19:48:30.604Z,8.93
2022-11-11T19:51:19.982Z,10.20
2022-11-11T19:54:05.661Z,11.57
2022-11-11T19:56:51.229Z,10.57
2022-11-11T19:59:36.869Z,11.47
2022-11-11T20:02:22.284Z,10.07
2022-11-11T20:05:08.337Z,9.60
2022-11-11T20:07:56.120Z,8.13
2022-11-11T20:10:44.935Z,12.20
2022-11-11T20:13:30.614Z,12.17
2022-11-11T20:16:16.522Z,10.40
2022-11-11T20:19:02.448Z,11.77
2022-11-11T20:21:47.977Z,10.10
2022-11-11T20:24:37.953Z,8.30
2022-11-11T20:27:23.588Z,10.83
2022-11-11T20:30:10.044Z,11.07
2022-11-11T20:32:55.310Z,10.93
2022-11-11T20:35:40.903Z,14.07
2022-11-11T20:38:28.416Z,11.00
2022-11-11T20:41:16.908Z,9.93
2022-11-11T20:44:02.485Z,10.67
2022-11-11T20:46:48.005Z,9.90
2022-11-11T20:49:34.207Z,8.77
2022-11-11T20:52:19.697Z,13.20
2022-11-11T20:55:05.873Z,10.67
2022-11-11T20:57:52.522Z,10.07
2022-11-11T21:00:38.055Z,8.93
2022-11-11T21:03:23.963Z,10.30
2022-11-11T21:06:12.119Z,9.93
2022-11-11T21:08:59.549Z,10.57
2022-11-11T21:11:44.743Z,10.13
2022-11-11T21:14:31.784Z,9.37
2022-11-11T21:17:17.391Z,11.33
2022-11-11T21:20:03.139Z,9.80
2022-11-11T21:22:48.393Z,9.27
2022-11-11T21:25:34.183Z,8.00
2022-11-11T21:28:19.497Z,8.77
2022-11-11T21:31:08.049Z,8.17
2022-11-11T21:33:54.835Z,10.00
2022-11-11T21:36:42.101Z,8.63
2022-11-11T21:39:27.447Z,10.73
2022-11-11T21:42:13.068Z,9.23
2022-11-11T21:44:58.664Z,7.97
2022-11-11T21:47:45.761Z,10.03
2022-11-11T21:50:32.199Z,8.53
2022-11-11T21:53:18.261Z,9.70
2022-11-11T21:56:06.592Z,8.87
2022-11-11T21:58:53.401Z,7.67
2022-11-11T22:01:40.405Z,9.33
2022-11-11T22:04:27.442Z,10.30
2022-11-11T22:07:18.828Z,14.90
2022-11-11T22:10:05.633Z,12.20
2022-11-11T22:12:50.885Z,10.53
2022-11-11T22:15:38.371Z,9.13
2022-11-11T22:18:24.415Z,9.97
2022-11-11T22:21:17.345Z,9.63
2022-11-11T22:24:05.572Z,10.50
2022-11-11T22:26:50.869Z,11.80
2022-11-11T22:29:36.451Z,11.37
2022-11-11T22:32:21.872Z,10.67
2022-11-11T22:35:07.761Z,11.00
2022-11-11T22:37:54.658Z,10.37
2022-11-11T22:40:40.186Z,11.50
2022-11-11T22:43:53.122Z,10.30
2022-11-11T22:46:32.178Z,9.77
2022-11-11T22:49:18.840Z,9.83
2022-11-11T22:52:04.323Z,8.57
2022-11-11T22:54:51.456Z,9.43
2022-11-11T22:57:37.025Z,9.63
2022-11-11T23:00:22.761Z,9.20
2022-11-11T23:03:08.117Z,9.47
2022-11-11T23:06:00.183Z,9.13
2022-11-11T23:08:46.370Z,8.93
2022-11-11T23:11:35.752Z,7.80
2022-11-11T23:14:21.972Z,9.40
2022-11-11T23:17:07.270Z,7.47
2022-11-11T23:19:52.695Z,9.10
2022-11-11T23:22:38.337Z,8.87
2022-11-11T23:25:23.877Z,9.50
2022-11-11T23:28:10.932Z,8.17
2022-11-11T23:31:00.920Z,7.87
2022-11-11T23:33:49.355Z,8.20
2022-11-11T23:36:35.275Z,8.27
2022-11-11T23:39:20.858Z,6.80
2022-11-11T23:42:06.630Z,8.87
2022-11-11T23:44:53.510Z,9.60
2022-11-11T23:47:39.107Z,7.50
2022-11-11T23:50:24.778Z,8.37
2022-11-11T23:53:10.727Z,8.73
2022-11-11T23:55:56.698Z,8.03
2022-11-11T23:58:42.399Z,8.23
